Honolulu, HI (96813)

12:37 PM HST on April 27, 2015 (GMT -1000)
Pacific Heights | | Change Station
CLOSE
Current Station
Personal Weather Station
Location: Honolulu, HI
Elevation: 528 ft
Nearby Weather Stations
Active Advisory: High Surf Advisory Active Notice: Record Report

Elev 528 ft 21.33 °N, 157.84 °W | Updated 11 seconds ago

Scattered Clouds
Scattered Clouds
76.5 °F
Feels Like 78 °F
N
8.1
Wind Variable Wind from SSW
Gusts 17.0 mph

Today
High -- | Low -- °F
--% Chance of Precip.
Yesterday
High -- | Low -- °F
Precip. -- in
6:03 AM 6:55 PM
Waxing Gibbous, 68% visible
Pressure 30.06 in
Visibility 10.0 miles
Clouds Few 2700 ft
Scattered Clouds 3900 ft
Scattered Clouds 4800 ft
Heat Index 78 °F
Dew Point 66 °F
Humidity 70%
Rainfall 0.05 in
Snow Depth Not available.
UV 10 out of 12
Pollen Not available.
Air Quality Not available.
Flu Activity Regional
METAR PHNL 272153Z 05017G27KT 10SM FEW027 SCT039 SCT048 25/17 A3006 RMK AO2 PK WND 02028/2142 SLP179 T02500172

More Conditions Fewer Conditions

Pressure 30.06 in
Visibility 10.0 miles
Clouds Few 2700 ft
Scattered Clouds 3900 ft
Scattered Clouds 4800 ft
Heat Index 78 °F
Dew Point 66 °F
Humidity 70%
Rainfall 0.05 in
Snow Depth Not available.
UV 10 out of 12
Pollen Not available.
Air Quality Not available.
Flu Activity Regional
METAR PHNL 272153Z 05017G27KT 10SM FEW027 SCT039 SCT048 25/17 A3006 RMK AO2 PK WND 02028/2142 SLP179 T02500172

More Conditions Fewer Conditions

10-Day Weather Forecast

Almanac

Astronomy

Apr. 27, 2015 Rise Set
Actual Time
Civil Twilight
Nautical Twilight
Astronomical Twilight
Moon
Length of Visible Light
Length of Day
Tomorrow will be .
, % of the Moon is Illuminated

Today's Extremes

State Highs State Lows

Community

WunderPhotos

Upload Photos

1,817,442 photos uploaded!

WunderBlogs® & News

Nearby

Air Quality

  Air Quality AQ Index Pollutant
Not available.

Snow Depth

Station Depth Elevation

Earthquake Activity

City Distance Mag. Time & Date
Minimum magnitude displayed is 2.5.

Coastal Water Temperatures

Place Temperature

Stations

Nearby Weather Stations

Station Location Temp. Windchill Dew Point Humidity Wind Precip. Elev Updated Type
                   
High Surf Advisory
Statement as of 3:30 AM HST on April 27, 2015

... High surf advisory now in effect until 6 PM HST Tuesday...

The high surf advisory is now in effect until 6 PM HST Tuesday.

* Surf... rising to 10 to 15 feet along north facing shores and 6
to 9 feet along east facing shores.

* Timing... until 6 PM HST Tuesday.

* Impacts... moderate... expect strong breaking waves... shore
break... and strong longshore and rip currents making swimming
difficult and dangerous.

Precautionary/preparedness actions...

Beachgoers... swimmers... and surfers should heed all advice given
by ocean safety officials and exercise caution. Boaters should
expect recreational surfers and body boarders utilizing Harbor
channels to access surfing areas.